Time;durP1;ratioP1;P1;durP2;ratioP2;P2;SDS_P1;SDS_P2;PMS_P1;PMS_P2;Temp;Humidity;BMP_temperature;BMP_pressure;BME280_temperature;BME280_humidity;BME280_pressure;Samples;Min_cycle;Max_cycle;Signal;HPM_P1;HPM_P2
2023/09/25 06:45:30;;;;;;;5.70;2.63;;;;;;;11.33;69.80;97248.13;2085912;28;20560;-63
2023/09/25 06:47:34;;;;;;;8.18;3.78;;;;;;;11.37;69.46;97236.63;2083751;28;20583;-63
2023/09/25 06:48:36;;;;;;;5.05;2.58;;;;;;;11.36;69.24;97245.38;2081406;28;20254;-64
2023/09/25 06:49:37;;;;;;;9.75;5.28;;;;;;;11.59;68.71;97247.09;2079595;28;20288;-64
2023/09/25 06:50:39;;;;;;;14.68;7.65;;;;;;;11.69;68.45;97240.56;2083879;28;20201;-65
2023/09/25 06:51:41;;;;;;;7.30;2.45;;;;;;;11.69;68.72;97245.81;2082811;28;20211;-64
2023/09/25 06:52:42;;;;;;;5.05;2.78;;;;;;;11.69;69.12;97237.97;2069856;28;20206;-64
2023/09/25 06:53:44;;;;;;;11.00;2.65;;;;;;;11.63;68.97;97243.47;2071816;28;20192;-65
2023/09/25 06:54:46;;;;;;;4.88;2.47;;;;;;;12.07;68.03;97245.22;2071588;28;20193;-65
2023/09/25 06:55:47;;;;;;;5.30;2.47;;;;;;;12.05;67.88;97234.81;2070306;28;20557;-66
2023/09/25 06:56:49;;;;;;;5.28;2.15;;;;;;;12.16;67.88;97244.84;2070784;28;20870;-65
2023/09/25 06:57:50;;;;;;;5.32;2.30;;;;;;;12.50;66.87;97235.56;2063492;28;20252;-65
2023/09/25 06:58:52;;;;;;;4.57;2.33;;;;;;;12.22;67.03;97231.47;2061708;28;20213;-65
2023/09/25 06:59:53;;;;;;;5.00;2.40;;;;;;;12.83;66.66;97242.84;2064048;28;20248;-65
2023/09/25 07:00:55;;;;;;;7.13;3.00;;;;;;;12.87;66.18;97236.59;2064367;28;20209;-65
2023/09/25 07:01:58;;;;;;;6.90;2.50;;;;;;;12.60;67.07;97240.41;2063215;28;20226;-65
2023/09/25 07:03:00;;;;;;;10.90;2.70;;;;;;;12.84;67.28;97244.56;2066001;28;20210;-65
2023/09/25 07:04:01;;;;;;;5.85;2.40;;;;;;;12.73;67.04;97238.94;2062886;28;20194;-65
2023/09/25 07:05:03;;;;;;;5.40;2.55;;;;;;;13.16;66.67;97242.25;2061921;28;20255;-66
2023/09/25 07:06:05;;;;;;;8.93;2.80;;;;;;;13.45;66.19;97241.91;2062641;28;20202;-65
2023/09/25 07:07:06;;;;;;;6.95;2.47;;;;;;;13.88;65.64;97238.06;2062574;28;20241;-65
2023/09/25 07:08:08;;;;;;;6.15;2.13;;;;;;;13.69;66.38;97239.88;2062510;28;20207;-65
2023/09/25 07:09:14;;;;;;;9.23;2.60;;;;;;;15.14;62.60;97239.63;2065384;28;20198;-65
2023/09/25 07:10:15;;;;;;;11.30;2.67;;;;;;;15.05;62.18;97232.25;2063370;28;20198;-65
2023/09/25 07:11:18;;;;;;;17.65;2.78;;;;;;;14.77;63.04;97247.69;2064539;28;20221;-65
2023/09/25 07:12:19;;;;;;;10.68;2.30;;;;;;;14.84;63.76;97240.31;2070747;28;20637;-65
2023/09/25 07:13:22;;;;;;;15.57;3.28;;;;;;;15.00;63.10;97243.00;2072378;28;20289;-66
2023/09/25 07:14:24;;;;;;;11.50;2.70;;;;;;;15.30;62.51;97242.25;2071764;28;20288;-65
2023/09/25 07:15:26;;;;;;;6.63;2.75;;;;;;;15.41;61.66;97241.69;2071472;28;20231;-65
2023/09/25 07:16:27;;;;;;;6.85;2.50;;;;;;;15.44;61.55;97238.88;2067581;28;20209;-66
2023/09/25 07:17:30;;;;;;;13.65;3.22;;;;;;;15.42;61.21;97233.72;2060974;28;20217;-65
2023/09/25 07:18:31;;;;;;;9.13;2.90;;;;;;;15.62;61.22;97242.31;2065007;28;20252;-66
2023/09/25 07:19:33;;;;;;;5.53;2.90;;;;;;;15.70;60.88;97247.13;2062889;28;20205;-65
2023/09/25 07:20:34;;;;;;;8.27;2.60;;;;;;;15.58;61.31;97240.75;2062876;28;20642;-66
2023/09/25 07:21:36;;;;;;;6.22;2.30;;;;;;;15.79;60.68;97242.19;2061681;28;20195;-66
2023/09/25 07:22:38;;;;;;;3.92;2.08;;;;;;;16.16;59.55;97245.41;2066296;28;20221;-66
2023/09/25 07:23:39;;;;;;;9.60;3.08;;;;;;;16.55;58.75;97237.88;2062992;28;20782;-66
2023/09/25 07:24:42;;;;;;;13.90;2.70;;;;;;;15.73;59.99;97244.31;2062204;28;20277;-63
2023/09/25 07:25:43;;;;;;;15.25;2.80;;;;;;;15.93;60.40;97240.59;2062571;28;20210;-65
2023/09/25 07:26:45;;;;;;;18.08;3.50;;;;;;;16.06;60.99;97238.97;2063957;28;20245;-64
2023/09/25 07:27:46;;;;;;;12.27;2.95;;;;;;;16.23;60.61;97248.53;2060880;28;20210;-64
2023/09/25 07:28:48;;;;;;;37.33;5.13;;;;;;;16.55;60.17;97237.88;2067477;28;20605;-63
2023/09/25 07:29:50;;;;;;;18.08;3.50;;;;;;;16.99;59.55;97236.19;2062861;28;20199;-63
2023/09/25 07:30:51;;;;;;;27.85;3.63;;;;;;;17.65;58.27;97233.84;2062716;28;20206;-63
2023/09/25 07:31:53;;;;;;;34.60;4.32;;;;;;;17.47;58.33;97238.47;2064479;28;20226;-63
2023/09/25 07:32:54;;;;;;;19.30;3.35;;;;;;;18.14;56.64;97235.09;2064610;28;20634;-63
2023/09/25 07:33:58;;;;;;;23.35;3.65;;;;;;;18.38;56.19;97239.72;2066302;28;20289;-63
2023/09/25 07:35:00;;;;;;;14.57;3.50;;;;;;;18.87;55.41;97238.19;2067228;28;20202;-63
2023/09/25 07:36:03;;;;;;;8.95;2.65;;;;;;;19.74;53.62;97227.66;2064379;28;20870;-64
2023/09/25 07:37:07;;;;;;;22.48;2.70;;;;;;;19.79;52.84;97249.38;2061779;28;20226;-64
2023/09/25 07:38:09;;;;;;;15.30;2.88;;;;;;;19.53;53.41;97245.97;2062621;28;20201;-64
2023/09/25 07:39:13;;;;;;;18.90;3.20;;;;;;;19.18;54.15;97244.84;2060687;28;20203;-64
2023/09/25 07:40:16;;;;;;;23.75;2.95;;;;;;;19.38;53.46;97242.59;2063304;28;20198;-64
2023/09/25 07:41:19;;;;;;;29.55;3.90;;;;;;;19.71;52.68;97246.44;2064032;28;20194;-64
2023/09/25 07:42:21;;;;;;;12.13;3.05;;;;;;;19.44;53.33;97244.81;2061837;28;20272;-64
2023/09/25 07:43:23;;;;;;;25.38;3.30;;;;;;;19.63;53.44;97251.44;2064084;28;20585;-64
2023/09/25 07:44:26;;;;;;;17.23;3.22;;;;;;;19.67;52.36;97253.75;2063452;28;20210;-64
2023/09/25 07:45:27;;;;;;;13.93;2.65;;;;;;;19.76;52.08;97254.91;2062302;28;20263;-63
2023/09/25 07:46:31;;;;;;;20.20;3.30;;;;;;;19.91;52.24;97250.34;2062966;28;20201;-63
2023/09/25 07:47:32;;;;;;;13.93;3.00;;;;;;;20.22;51.56;97242.75;2058167;28;20231;-64
2023/09/25 07:48:37;;;;;;;19.60;6.88;;;;;;;20.23;50.97;97250.59;2065851;28;20202;-63
2023/09/25 07:49:45;;;;;;;20.17;8.85;;;;;;;20.01;51.29;97258.44;2060511;28;20226;-63
2023/09/25 07:50:47;;;;;;;35.75;15.13;;;;;;;20.19;51.33;97257.09;2064235;28;20646;-63
2023/09/25 07:51:49;;;;;;;23.50;4.40;;;;;;;19.77;52.20;97255.75;2064490;28;20835;-64
2023/09/25 07:52:54;;;;;;;11.15;4.38;;;;;;;19.60;52.04;97259.63;2065205;28;20634;-64
2023/09/25 07:53:58;;;;;;;14.57;3.60;;;;;;;20.01;51.70;97255.78;2059672;28;20226;-64
2023/09/25 07:55:00;;;;;;;7.47;3.00;;;;;;;20.50;50.81;97261.91;2061452;28;20646;-63
2023/09/25 07:56:03;;;;;;;14.00;3.55;;;;;;;20.28;50.99;97258.22;2062278;28;20210;-64
2023/09/25 07:57:04;;;;;;;13.88;4.00;;;;;;;19.88;51.96;97259.34;2061789;28;20225;-64
2023/09/25 07:58:06;;;;;;;24.27;4.25;;;;;;;20.74;50.18;97261.06;2066295;28;20186;-64
2023/09/25 07:59:08;;;;;;;14.15;3.63;;;;;;;20.61;50.57;97261.94;2053358;28;20771;-64
2023/09/25 08:00:17;;;;;;;11.93;3.42;;;;;;;19.99;51.65;97257.72;2057983;28;20249;-64
2023/09/25 08:01:19;;;;;;;11.77;2.92;;;;;;;20.41;51.87;97258.13;2058362;28;20195;-64
2023/09/25 08:02:20;;;;;;;12.90;3.33;;;;;;;20.79;50.97;97264.19;2056139;28;20257;-64
2023/09/25 08:03:23;;;;;;;8.65;2.95;;;;;;;20.88;50.57;97268.78;2056976;28;20210;-64
2023/09/25 08:04:24;;;;;;;11.02;2.70;;;;;;;20.66;51.50;97259.78;2057401;28;20294;-64
2023/09/25 08:05:28;;;;;;;7.80;2.45;;;;;;;21.24;50.63;97266.06;2055717;28;20209;-64
2023/09/25 08:06:29;;;;;;;12.70;2.78;;;;;;;21.34;50.30;97265.22;2058818;28;20238;-64
2023/09/25 08:07:31;;;;;;;15.32;2.92;;;;;;;21.46;50.46;97268.72;2056943;28;20234;-64
2023/09/25 08:08:33;;;;;;;8.95;2.67;;;;;;;21.16;50.19;97264.81;2057625;28;20205;-64
2023/09/25 08:09:36;;;;;;;8.60;2.93;;;;;;;21.58;49.99;97268.72;2055426;28;20206;-67
2023/09/25 08:10:41;;;;;;;7.13;2.47;;;;;;;21.48;50.24;97274.75;2057037;28;20434;-66
2023/09/25 08:11:43;;;;;;;10.13;2.53;;;;;;;22.19;49.01;97278.88;2056841;28;20834;-66
2023/09/25 08:12:45;;;;;;;11.35;2.70;;;;;;;22.16;49.10;97268.50;2060293;28;20818;-66
2023/09/25 08:13:47;;;;;;;11.33;2.10;;;;;;;21.47;49.87;97267.75;2057566;28;20217;-66
2023/09/25 08:14:48;;;;;;;9.43;3.30;;;;;;;22.30;48.84;97273.50;2055421;28;20428;-66
2023/09/25 08:15:49;;;;;;;11.20;3.00;;;;;;;21.48;50.64;97272.09;2055055;28;20444;-66
2023/09/25 08:16:51;;;;;;;6.17;2.30;;;;;;;21.92;49.39;97274.84;2057417;28;20199;-66
2023/09/25 08:17:52;;;;;;;7.70;2.50;;;;;;;23.15;46.87;97271.78;2057944;28;20429;-66
2023/09/25 08:18:54;;;;;;;17.88;2.35;;;;;;;23.24;45.65;97277.28;2056839;28;20437;-66
2023/09/25 08:19:56;;;;;;;7.38;1.75;;;;;;;23.56;44.18;97271.81;2057642;28;20827;-66
2023/09/25 08:20:57;;;;;;;4.23;1.70;;;;;;;23.01;44.47;97277.41;2058960;28;20265;-66
2023/09/25 08:21:59;;;;;;;11.70;1.83;;;;;;;22.27;45.94;97273.78;2058587;28;20449;-66
2023/09/25 08:23:01;;;;;;;2.93;1.67;;;;;;;22.42;46.10;97274.31;2057641;28;20482;-66
2023/09/25 08:24:02;;;;;;;13.40;2.50;;;;;;;22.65;45.76;97276.88;2056803;28;20448;-66
2023/09/25 08:25:04;;;;;;;5.83;2.03;;;;;;;22.70;45.91;97273.84;2054930;28;20472;-66
2023/09/25 08:26:06;;;;;;;6.27;2.20;;;;;;;23.12;44.99;97276.47;2056892;28;20434;-66
2023/09/25 08:27:09;;;;;;;7.47;2.03;;;;;;;23.25;44.87;97282.47;2055229;28;20982;-66
2023/09/25 08:28:10;;;;;;;6.83;2.40;;;;;;;23.54;45.15;97276.44;2054981;28;20460;-66
2023/09/25 08:29:16;;;;;;;10.93;2.40;;;;;;;23.30;44.89;97280.25;2058412;28;20827;-66
2023/09/25 08:30:18;;;;;;;4.18;1.83;;;;;;;22.93;45.13;97277.22;2057450;28;20439;-66
2023/09/25 08:31:20;;;;;;;2.88;1.42;;;;;;;23.78;42.88;97281.44;2055204;28;20206;-64
2023/09/25 08:32:22;;;;;;;4.40;1.75;;;;;;;23.10;42.87;97275.78;2060360;28;20229;-63
2023/09/25 08:33:23;;;;;;;5.55;2.00;;;;;;;22.80;43.78;97278.28;2060853;28;20201;-64
2023/09/25 08:34:25;;;;;;;2.65;1.50;;;;;;;22.61;44.87;97278.13;2060517;28;20275;-64
2023/09/25 08:35:26;;;;;;;6.00;1.80;;;;;;;21.57;47.02;97275.00;2058938;28;20248;-64
2023/09/25 08:36:28;;;;;;;6.95;2.03;;;;;;;21.61;47.52;97265.81;2059501;28;20297;-64
2023/09/25 08:37:29;;;;;;;4.90;2.00;;;;;;;22.46;47.38;97270.47;2059043;28;20218;-63
2023/09/25 08:38:31;;;;;;;5.72;1.95;;;;;;;22.75;46.04;97276.97;2061149;28;20632;-63
2023/09/25 08:39:32;;;;;;;5.18;1.92;;;;;;;23.15;44.70;97274.44;2059898;28;20287;-64
2023/09/25 08:40:37;;;;;;;9.93;2.35;;;;;;;22.27;46.06;97276.44;2058615;28;20196;-64
2023/09/25 08:41:40;;;;;;;5.05;1.90;;;;;;;21.98;46.53;97276.16;2051293;28;20286;-64
2023/09/25 08:42:42;;;;;;;13.30;2.20;;;;;;;22.84;45.98;97281.50;2051877;28;20599;-64
2023/09/25 08:43:44;;;;;;;5.55;1.92;;;;;;;22.97;44.59;97278.66;2056238;28;20206;-64
2023/09/25 08:44:46;;;;;;;4.38;2.00;;;;;;;23.47;44.19;97276.13;2061878;28;20190;-64
2023/09/25 08:45:50;;;;;;;7.57;2.20;;;;;;;23.94;43.48;97280.91;2060479;28;20194;-64
2023/09/25 08:46:52;;;;;;;4.95;2.00;;;;;;;23.82;42.88;97274.00;2058655;28;20310;-64
2023/09/25 08:47:54;;;;;;;3.95;1.92;;;;;;;23.88;42.97;97277.94;2059347;28;20532;-64
2023/09/25 08:49:01;;;;;;;5.38;2.08;;;;;;;21.69;45.77;97266.91;2058037;28;20214;-63
2023/09/25 08:50:03;;;;;;;7.60;1.92;;;;;;;21.13;48.06;97277.53;2057661;28;20206;-64
2023/09/25 08:51:05;;;;;;;5.60;1.85;;;;;;;21.98;45.83;97277.00;2062187;28;20234;-63
2023/09/25 08:52:07;;;;;;;7.20;1.90;;;;;;;21.37;47.59;97277.41;2059349;28;20222;-63
2023/09/25 08:53:08;;;;;;;2.95;1.58;;;;;;;21.65;46.37;97275.25;2055234;28;20195;-63
2023/09/25 08:54:10;;;;;;;11.20;2.10;;;;;;;21.63;45.96;97278.00;2058611;28;20668;-64
2023/09/25 08:55:12;;;;;;;4.80;1.70;;;;;;;21.45;47.40;97274.97;2058191;28;20203;-63
2023/09/25 08:56:15;;;;;;;8.82;2.22;;;;;;;20.02;48.50;97273.38;2059350;28;20202;-63
2023/09/25 08:57:18;;;;;;;4.50;1.80;;;;;;;21.25;46.71;97276.53;2056765;28;20215;-63
2023/09/25 08:58:21;;;;;;;4.63;2.30;;;;;;;21.20;46.28;97274.28;2056335;28;20199;-64
2023/09/25 08:59:24;;;;;;;6.43;2.03;;;;;;;20.21;48.84;97270.22;2058265;28;20199;-63
2023/09/25 09:00:25;;;;;;;8.20;2.28;;;;;;;20.62;48.07;97270.72;2057533;28;20644;-63
2023/09/25 09:01:29;;;;;;;7.70;2.10;;;;;;;20.98;47.82;97283.03;2057180;28;20230;-65
2023/09/25 09:02:30;;;;;;;5.13;1.80;;;;;;;21.43;46.47;97282.22;2059161;28;20245;-65
2023/09/25 09:03:34;;;;;;;4.72;2.10;;;;;;;21.58;46.90;97282.84;2055886;28;20543;-65
2023/09/25 09:04:37;;;;;;;3.70;1.75;;;;;;;20.94;47.30;97278.94;2054673;28;20199;-65
2023/09/25 09:05:39;;;;;;;4.97;1.90;;;;;;;20.84;47.75;97281.44;2052351;28;20603;-65
2023/09/25 09:06:40;;;;;;;5.07;2.03;;;;;;;20.30;48.35;97288.13;2055932;28;20206;-64
2023/09/25 09:08:01;;;;;;;6.10;1.40;;;;;;;20.88;48.19;97280.22;2057037;28;20233;-65
2023/09/25 09:09:03;;;;;;;5.25;2.35;;;;;;;21.13;47.42;97281.00;2056722;28;20194;-65
2023/09/25 09:10:05;;;;;;;8.65;1.88;;;;;;;21.17;47.32;97276.31;2057644;28;20194;-65
2023/09/25 09:11:10;;;;;;;6.30;2.15;;;;;;;21.00;47.72;97288.22;2059107;28;20854;-65
2023/09/25 09:12:12;;;;;;;3.38;1.75;;;;;;;20.80;47.96;97281.81;2054330;28;20399;-65
2023/09/25 09:13:14;;;;;;;5.60;2.10;;;;;;;20.74;47.55;97277.81;2053247;28;20195;-65
2023/09/25 09:14:32;;;;;;;4.57;2.08;;;;;;;21.84;46.23;97280.78;2052727;28;20235;-65
2023/09/25 09:15:34;;;;;;;4.70;1.90;;;;;;;22.48;45.58;97281.81;2052954;28;20229;-65
2023/09/25 09:16:36;;;;;;;6.65;1.98;;;;;;;22.27;45.60;97287.06;2052818;28;20249;-65
2023/09/25 09:17:38;;;;;;;4.32;2.08;;;;;;;22.46;45.15;97285.56;2057798;28;20199;-65
2023/09/25 09:18:39;;;;;;;4.85;1.70;;;;;;;22.70;45.66;97280.00;2056180;28;20278;-65
2023/09/25 09:19:43;;;;;;;3.33;1.60;;;;;;;23.21;43.45;97282.88;2054833;28;20192;-65
2023/09/25 09:20:45;;;;;;;3.83;1.70;;;;;;;21.93;45.41;97279.19;2053498;28;20198;-65
2023/09/25 09:21:46;;;;;;;6.72;2.55;;;;;;;22.98;44.06;97281.19;2052032;28;20203;-65
2023/09/25 09:22:52;;;;;;;3.90;2.00;;;;;;;22.90;43.48;97280.97;2055467;28;20243;-65
2023/09/25 09:23:55;;;;;;;6.50;2.10;;;;;;;23.51;43.41;97275.88;2055190;28;20915;-65
2023/09/25 09:25:00;;;;;;;7.50;1.90;;;;;;;23.98;42.73;97275.31;2058269;28;20233;-66
2023/09/25 09:26:04;;;;;;;6.63;2.15;;;;;;;23.37;43.68;97279.72;2058116;28;20282;-66
2023/09/25 09:27:10;;;;;;;4.40;1.77;;;;;;;23.90;42.67;97278.66;2058781;28;20898;-65
2023/09/25 09:28:11;;;;;;;3.00;1.60;;;;;;;23.93;41.72;97275.72;2055351;28;20199;-65
2023/09/25 09:29:13;;;;;;;4.18;1.83;;;;;;;24.31;42.03;97276.75;2054978;28;20205;-65
2023/09/25 09:30:22;;;;;;;4.70;1.90;;;;;;;22.32;44.23;97279.56;2057306;28;20704;-66
2023/09/25 09:31:24;;;;;;;5.20;2.05;;;;;;;22.81;45.14;97266.63;2059340;28;20252;-66
2023/09/25 09:32:26;;;;;;;3.03;1.50;;;;;;;23.28;44.39;97270.72;2056760;28;20615;-66
2023/09/25 09:33:30;;;;;;;3.92;1.88;;;;;;;24.35;41.88;97269.31;2058848;28;20249;-66
2023/09/25 09:34:33;;;;;;;4.60;2.10;;;;;;;24.61;41.69;97266.94;2057866;28;20276;-64
2023/09/25 09:35:35;;;;;;;7.20;2.10;;;;;;;26.03;40.18;97272.25;2058962;28;20191;-64
2023/09/25 09:36:37;;;;;;;3.85;1.80;;;;;;;26.79;38.93;97262.13;2058602;28;20754;-65
2023/09/25 09:37:39;;;;;;;9.85;2.38;;;;;;;25.92;39.19;97265.25;2057232;28;20285;-64
2023/09/25 09:38:42;;;;;;;3.97;1.77;;;;;;;26.23;39.28;97261.44;2057787;28;20199;-63
2023/09/25 09:39:45;;;;;;;6.70;1.63;;;;;;;26.07;39.92;97259.44;2055673;28;20199;-63
2023/09/25 09:40:48;;;;;;;6.00;1.95;;;;;;;26.47;39.04;97263.50;2055255;28;20196;-63
2023/09/25 09:41:50;;;;;;;4.20;1.58;;;;;;;26.27;39.00;97257.47;2055385;28;20252;-64
2023/09/25 09:42:53;;;;;;;7.28;1.95;;;;;;;26.13;39.22;97266.88;2059225;28;20282;-65
2023/09/25 09:43:55;;;;;;;3.28;1.60;;;;;;;26.28;39.22;97256.47;2058370;28;20206;-64
2023/09/25 09:44:56;;;;;;;9.43;1.85;;;;;;;26.99;38.38;97257.41;2061430;28;20234;-64
2023/09/25 09:45:59;;;;;;;3.35;1.83;;;;;;;26.34;39.18;97265.72;2058981;28;20203;-64
2023/09/25 09:47:07;;;;;;;3.65;1.98;;;;;;;25.90;39.45;97266.41;2055753;28;20680;-64
2023/09/25 09:48:10;;;;;;;4.30;1.92;;;;;;;25.36;39.07;97260.94;2056875;28;20245;-64
2023/09/25 09:49:15;;;;;;;5.85;2.03;;;;;;;24.53;40.31;97259.63;2058503;28;20211;-64
2023/09/25 09:50:21;;;;;;;5.28;1.98;;;;;;;24.57;41.13;97262.84;2056962;28;20199;-65
2023/09/25 09:51:25;;;;;;;8.70;1.88;;;;;;;24.67;40.96;97265.53;2057075;28;20713;-65
2023/09/25 09:52:28;;;;;;;3.97;2.03;;;;;;;24.74;40.23;97258.66;2058142;28;20257;-64
2023/09/25 09:53:35;;;;;;;4.78;1.58;;;;;;;24.91;40.19;97262.41;2059432;28;20199;-64
2023/09/25 09:54:42;;;;;;;7.20;2.08;;;;;;;25.27;39.88;97258.09;2058393;28;20707;-64
2023/09/25 09:55:44;;;;;;;3.25;1.75;;;;;;;23.56;41.55;97253.16;2058913;28;20302;-65
2023/09/25 09:56:47;;;;;;;22.83;14.13;;;;;;;24.09;41.48;97259.22;2056971;28;20207;-65
2023/09/25 09:57:50;;;;;;;6.57;2.10;;;;;;;24.92;39.99;97251.63;2057473;28;20190;-65
2023/09/25 09:58:53;;;;;;;4.47;1.70;;;;;;;24.03;40.66;97257.09;2054159;28;20199;-64
2023/09/25 09:59:56;;;;;;;5.07;1.92;;;;;;;24.58;41.23;97254.72;2054942;28;20229;-65
2023/09/25 10:01:00;;;;;;;5.45;2.20;;;;;;;24.35;40.92;97256.81;2059151;28;20199;-64
2023/09/25 10:02:03;;;;;;;6.15;2.00;;;;;;;24.17;41.34;97254.00;2058800;28;20886;-64
2023/09/25 10:03:08;;;;;;;4.90;1.65;;;;;;;24.48;41.35;97243.22;2058579;28;20210;-66
2023/09/25 10:04:10;;;;;;;3.22;1.58;;;;;;;24.19;42.66;97252.06;2058304;28;20211;-65
2023/09/25 10:05:17;;;;;;;6.30;1.77;;;;;;;24.42;41.38;97259.78;2058752;28;20202;-65
2023/09/25 10:06:24;;;;;;;5.05;2.08;;;;;;;24.98;40.49;97249.34;2057128;28;20466;-63
2023/09/25 10:07:27;;;;;;;5.63;2.10;;;;;;;24.71;41.23;97249.13;2058447;28;20362;-64
2023/09/25 10:08:29;;;;;;;6.80;1.80;;;;;;;23.79;42.04;97261.78;2057428;28;20290;-64
2023/09/25 10:09:32;;;;;;;4.85;1.77;;;;;;;23.74;41.91;97263.16;2054599;28;20192;-65
2023/09/25 10:10:36;;;;;;;5.82;2.40;;;;;;;23.60;42.47;97264.38;2055011;28;20219;-64
2023/09/25 10:11:40;;;;;;;8.23;1.98;;;;;;;24.37;41.18;97254.84;2057384;28;20213;-64
2023/09/25 10:12:49;;;;;;;4.70;2.08;;;;;;;24.83;40.86;97256.97;2056973;28;20934;-64
2023/09/25 10:13:55;;;;;;;6.05;2.13;;;;;;;24.36;40.91;97247.81;2055889;28;20226;-65
2023/09/25 10:14:56;;;;;;;5.68;1.73;;;;;;;25.04;40.73;97252.28;2058085;28;20203;-64
2023/09/25 10:16:00;;;;;;;3.25;1.80;;;;;;;25.54;39.91;97255.63;2056394;28;20244;-65
2023/09/25 10:17:06;;;;;;;4.68;1.48;;;;;;;26.01;39.25;97243.97;2059229;28;20673;-64
2023/09/25 10:18:09;;;;;;;4.70;2.30;;;;;;;26.72;38.06;97258.34;2055162;28;20423;-65
2023/09/25 10:19:21;;;;;;;11.43;2.30;;;;;;;25.56;39.42;97245.63;2057962;28;20253;-64
2023/09/25 10:20:41;;;;;;;10.68;2.30;;;;;;;26.45;39.16;97252.13;2058539;28;20202;-64
2023/09/25 10:22:09;;;;;;;5.63;2.20;;;;;;;27.66;38.13;97245.22;2052644;28;20206;-64
2023/09/25 10:23:10;;;;;;;6.05;1.95;;;;;;;28.01;37.38;97238.78;2059081;28;20261;-65
2023/09/25 10:24:24;;;;;;;4.43;2.05;;;;;;;28.87;36.63;97243.91;2058501;28;20669;-65
2023/09/25 10:25:26;;;;;;;9.75;1.50;;;;;;;29.13;36.50;97243.69;2059451;28;20381;-65
2023/09/25 10:26:33;;;;;;;4.43;1.85;;;;;;;29.37;36.26;97241.13;2054504;28;20606;-65
2023/09/25 10:27:36;;;;;;;5.57;2.47;;;;;;;29.69;35.74;97236.63;2048704;28;20231;-65
2023/09/25 10:28:39;;;;;;;8.70;1.80;;;;;;;29.93;35.88;97236.56;2049947;28;20218;-65
2023/09/25 10:30:01;;;;;;;7.22;1.60;;;;;;;29.87;35.45;97242.59;2057684;28;20253;-66
2023/09/25 10:31:17;;;;;;;11.95;2.05;;;;;;;29.18;36.11;97240.50;2054120;28;20334;-65
2023/09/25 10:32:30;;;;;;;10.57;2.50;;;;;;;30.23;35.71;97243.94;2056178;28;20314;-65
2023/09/25 10:33:35;;;;;;;7.77;2.43;;;;;;;30.45;35.53;97240.41;2055594;28;20430;-66
2023/09/25 10:34:39;;;;;;;13.93;2.30;;;;;;;30.43;35.15;97239.75;2056652;28;20439;-65
2023/09/25 10:35:49;;;;;;;3.37;1.67;;;;;;;28.09;35.70;97239.84;2058883;28;20424;-66
2023/09/25 10:37:00;;;;;;;3.30;1.63;;;;;;;24.68;40.50;97236.03;2056626;28;20536;-66
2023/09/25 10:38:26;;;;;;;6.18;1.92;;;;;;;24.51;41.05;97240.25;2056405;28;20441;-65
2023/09/25 10:39:33;;;;;;;4.78;2.00;;;;;;;23.73;41.35;97235.69;2057782;28;20219;-65
2023/09/25 10:40:38;;;;;;;4.13;1.70;;;;;;;24.13;41.74;97240.09;2053768;28;20203;-65
2023/09/25 10:41:41;;;;;;;4.00;1.90;;;;;;;24.82;42.10;97242.75;2056935;28;20194;-64
2023/09/25 10:42:43;;;;;;;5.00;2.00;;;;;;;25.73;39.77;97235.97;2059951;28;20659;-65
2023/09/25 10:43:45;;;;;;;8.68;2.03;;;;;;;27.27;39.21;97245.69;2060392;28;20329;-65
2023/09/25 10:44:47;;;;;;;3.33;1.42;;;;;;;27.46;37.88;97234.72;2059878;28;20205;-65
2023/09/25 10:45:50;;;;;;;5.47;1.63;;;;;;;26.78;38.21;97243.50;2060589;28;20203;-65
2023/09/25 10:46:52;;;;;;;6.35;1.95;;;;;;;26.87;38.29;97240.75;2056944;28;20290;-65
2023/09/25 10:47:53;;;;;;;3.80;1.50;;;;;;;26.89;38.24;97241.44;2058373;28;20238;-65
2023/09/25 10:48:55;;;;;;;15.73;2.15;;;;;;;26.09;39.65;97233.38;2059012;28;20202;-66
2023/09/25 10:49:56;;;;;;;6.45;1.80;;;;;;;26.48;39.80;97241.09;2061455;28;20198;-65
2023/09/25 10:50:58;;;;;;;7.88;2.30;;;;;;;24.96;41.19;97243.28;2056033;28;20199;-64
2023/09/25 10:51:59;;;;;;;5.55;2.03;;;;;;;25.49;40.62;97237.34;2059771;28;20221;-65
2023/09/25 10:53:01;;;;;;;8.55;2.70;;;;;;;25.31;41.09;97233.78;2059914;28;20241;-65
2023/09/25 10:54:03;;;;;;;5.40;2.40;;;;;;;27.09;38.88;97232.34;2058653;28;20730;-65
2023/09/25 10:55:05;;;;;;;9.55;2.35;;;;;;;26.62;39.17;97228.97;2057936;28;20635;-65
2023/09/25 10:56:07;;;;;;;8.05;2.15;;;;;;;27.36;38.96;97237.53;2055239;28;20199;-65
2023/09/25 10:57:09;;;;;;;10.80;1.83;;;;;;;27.25;38.64;97235.13;2052180;28;20219;-65
2023/09/25 10:58:14;;;;;;;12.07;2.58;;;;;;;27.73;38.87;97230.16;2052857;28;20202;-65
2023/09/25 10:59:15;;;;;;;4.40;2.08;;;;;;;28.73;37.70;97229.31;2055309;28;20195;-65
2023/09/25 11:00:18;;;;;;;6.03;1.60;;;;;;;29.37;36.65;97227.69;2053717;28;20203;-65
2023/09/25 11:01:24;;;;;;;10.85;2.17;;;;;;;27.43;38.00;97226.19;2056540;28;20199;-66
2023/09/25 11:02:25;;;;;;;6.93;2.42;;;;;;;26.50;40.52;97230.22;2056574;28;20226;-66
2023/09/25 11:03:27;;;;;;;5.97;1.70;;;;;;;28.37;38.53;97234.16;2057518;28;20843;-64
2023/09/25 11:04:29;;;;;;;5.85;2.25;;;;;;;29.40;37.07;97227.34;2056840;28;20198;-65
2023/09/25 11:05:32;;;;;;;4.60;2.20;;;;;;;29.77;37.03;97223.97;2059573;28;20657;-65
2023/09/25 11:06:34;;;;;;;7.13;2.40;;;;;;;30.08;36.44;97231.25;2059527;28;20205;-66
2023/09/25 11:07:36;;;;;;;2.83;1.48;;;;;;;30.36;35.92;97225.34;2059050;28;20242;-65
2023/09/25 11:08:37;;;;;;;3.43;1.83;;;;;;;30.19;35.57;97229.16;2055376;28;20191;-66
2023/09/25 11:09:39;;;;;;;4.80;2.00;;;;;;;28.60;36.84;97228.97;2059231;28;21255;-65
2023/09/25 11:10:41;;;;;;;6.13;2.10;;;;;;;28.51;37.06;97228.94;2060262;28;20929;-66
2023/09/25 11:11:46;;;;;;;6.33;2.10;;;;;;;27.89;38.30;97229.34;2057943;28;20206;-66
2023/09/25 11:12:48;;;;;;;3.77;1.63;;;;;;;28.41;36.95;97227.47;2057509;28;20447;-66
2023/09/25 11:13:49;;;;;;;6.38;2.50;;;;;;;26.57;40.01;97228.59;2055433;28;20437;-67
2023/09/25 11:14:51;;;;;;;6.32;2.55;;;;;;;26.36;40.51;97227.09;2055951;28;20199;-66
2023/09/25 11:15:53;;;;;;;3.05;1.50;;;;;;;27.85;38.78;97222.66;2058139;28;20199;-66
2023/09/25 11:16:54;;;;;;;6.15;2.15;;;;;;;28.52;38.25;97229.81;2059458;28;20218;-66
2023/09/25 11:17:58;;;;;;;7.22;2.13;;;;;;;29.25;37.74;97229.91;2059588;28;20195;-66
2023/09/25 11:19:28;;;;;;;3.88;1.70;;;;;;;29.71;36.58;97223.84;2058815;28;20207;-67
2023/09/25 11:20:33;;;;;;;10.48;2.47;;;;;;;29.07;36.43;97219.38;2055748;28;20205;-66
2023/09/25 11:21:34;;;;;;;5.90;1.80;;;;;;;27.59;37.92;97222.72;2055485;28;20281;-66
2023/09/25 11:22:39;;;;;;;11.23;2.75;;;;;;;26.58;40.13;97227.63;2055014;28;20575;-67
2023/09/25 11:23:43;;;;;;;4.55;2.22;;;;;;;25.21;41.94;97229.28;2053005;28;20198;-66
2023/09/25 11:24:55;;;;;;;4.57;1.95;;;;;;;25.77;41.16;97223.16;2052479;28;20192;-67
2023/09/25 11:25:57;;;;;;;8.13;1.58;;;;;;;24.96;42.53;97227.28;2054178;28;20238;-67
2023/09/25 11:27:07;;;;;;;9.77;2.20;;;;;;;24.61;43.29;97214.38;2056951;28;20218;-66
2023/09/25 11:28:12;;;;;;;11.60;1.90;;;;;;;25.70;42.24;97223.75;2058229;28;20306;-67
2023/09/25 11:29:13;;;;;;;4.72;1.80;;;;;;;25.59;41.64;97219.44;2057285;28;20195;-67
2023/09/25 11:30:15;;;;;;;11.85;3.08;;;;;;;24.51;42.77;97218.91;2058402;28;20203;-66
2023/09/25 11:31:16;;;;;;;11.20;2.45;;;;;;;24.18;44.13;97218.34;2060114;28;20659;-67
2023/09/25 11:32:18;;;;;;;9.82;2.20;;;;;;;25.51;43.03;97222.03;2055883;28;20736;-66
2023/09/25 11:33:21;;;;;;;9.30;2.20;;;;;;;26.18;41.61;97229.78;2057313;28;20713;-66
2023/09/25 11:34:23;;;;;;;19.38;3.72;;;;;;;27.01;40.76;97225.09;2056593;28;20203;-66
2023/09/25 11:35:27;;;;;;;10.68;2.53;;;;;;;27.74;39.73;97218.41;2057824;28;20697;-67
2023/09/25 11:36:30;;;;;;;11.75;2.50;;;;;;;26.77;40.23;97226.63;2057638;28;20887;-66
2023/09/25 11:37:31;;;;;;;12.75;2.40;;;;;;;27.48;40.07;97223.88;2057083;28;20250;-67
2023/09/25 11:38:33;;;;;;;7.85;1.88;;;;;;;28.17;39.59;97221.06;2059576;28;20203;-66
2023/09/25 11:39:35;;;;;;;8.57;2.28;;;;;;;27.76;39.27;97226.31;2057530;28;20194;-67
2023/09/25 11:40:36;;;;;;;6.15;2.38;;;;;;;25.61;41.37;97223.78;2055870;28;20210;-66
2023/09/25 11:41:37;;;;;;;7.55;2.17;;;;;;;25.12;42.52;97227.50;2056824;28;20623;-66
2023/09/25 11:42:39;;;;;;;4.15;2.05;;;;;;;24.06;43.29;97224.78;2055566;28;20195;-66
2023/09/25 11:43:40;;;;;;;3.78;1.70;;;;;;;23.77;44.89;97230.91;2057941;28;20286;-66